Terminal Aerodrome Forecast
Issued by NWS Birmingham, AL

Home | Current Version | Previous Version | Text Only | Print | Product List | Glossary On
Versions: 1 2 3 4 5 6 7 8 9 10 11 12 13 14 15 16
868
FTUS44 KBMX 231740
TAFBHM
TAF
KBHM 231740Z 2318/2418 26007KT P6SM SCT030 SCT050
     FM232000 25008KT P6SM VCTS BKN040CB
     FM240000 23003KT P6SM SCT050 SCT100
      TEMPO 2410/2413 5SM HZ BR=

USA.gov is the U.S. government's official web portal to all federal, state and local government web resources and services.